Bergen, Canada
Current Conditions -  °F | °C
As of 12:24 PM on Thursday 27 Nov 2014 (Local Time) from CYBW Reporting Station
Overcast Overcast  
Wind Chill: 12°   Ceiling: 400
Heat Index: 23°   Visibility: 3mi
Dew Point: 23°   Wind: 10mph
Humidity: 100%   Direction: 360°N
Pressure: 29.72"   Gusts: NA
Location:  51.71°N, 114.63°W
Report Text: CYBW 271924Z AUTO 36009KT 3SM OVC004 M05/M05 A2972 RMK ICG SLP122
Loading
Personal Weather Stations






























Interactive Weather Map New forecast layout! Learn more

10-Day Weather Forecast

Advertisements
Track Severe Weather on mobile